Troy, Missouri
Current Conditions -  °F | °C
As of 4:15 AM on Saturday 20 Dec 2014 (Local Time) from KFYG Reporting Station
Haze Haze  
Wind Chill: 32°   Ceiling: 2300
Heat Index: 36°   Visibility: 5mi
Dew Point: 32°   Wind: 5mph
Humidity: 87%   Direction: 120°ESE
Pressure: 30.24"   Gusts: NA
Location:  38.98°N, 90.98°W
Report Text: KFYG 201015Z AUTO 12004KT 5SM BR OVC023 02/00 A3024 RMK AO2
Loading
Personal Weather Stations






























Interactive Weather Map New forecast layout! Learn more

10-Day Weather Forecast

Advertisements
Track Severe Weather on mobile